createdAt,value
2022-07-25T00:01:03.941Z,1.40
2022-07-25T00:03:52.134Z,1.67
2022-07-25T00:06:38.298Z,1.77
2022-07-25T00:09:23.635Z,1.30
2022-07-25T00:12:09.042Z,1.60
2022-07-25T00:14:56.767Z,1.30
2022-07-25T00:17:42.073Z,1.52
2022-07-25T00:20:27.755Z,1.50
2022-07-25T00:23:13.030Z,1.55
2022-07-25T00:25:58.435Z,1.25
2022-07-25T00:28:44.363Z,1.40
2022-07-25T00:31:29.759Z,1.40
2022-07-25T00:34:15.182Z,1.30
2022-07-25T00:37:00.510Z,1.65
2022-07-25T00:39:45.578Z,1.60
2022-07-25T00:42:31.027Z,1.80
2022-07-25T00:45:16.153Z,1.30
2022-07-25T00:48:01.143Z,1.90
2022-07-25T00:50:46.370Z,1.40
2022-07-25T00:53:31.541Z,1.60
2022-07-25T00:56:17.018Z,1.40
2022-07-25T00:59:02.240Z,1.30
2022-07-25T01:01:48.458Z,1.05
2022-07-25T01:04:34.176Z,1.52
2022-07-25T01:07:19.582Z,1.05
2022-07-25T01:10:06.243Z,1.30
2022-07-25T01:12:54.025Z,1.35
2022-07-25T01:15:39.676Z,1.73
2022-07-25T01:18:24.927Z,1.75
2022-07-25T01:21:10.196Z,1.80
2022-07-25T01:23:55.395Z,1.43
2022-07-25T01:26:40.903Z,1.15
2022-07-25T01:29:26.174Z,1.30
2022-07-25T01:32:13.555Z,1.23
2022-07-25T01:34:58.805Z,1.70
2022-07-25T01:37:46.064Z,1.30
2022-07-25T01:40:31.587Z,1.52
2022-07-25T01:43:16.632Z,1.45
2022-07-25T01:46:01.513Z,1.20
2022-07-25T01:48:53.382Z,1.52
2022-07-25T01:51:38.515Z,1.67
2022-07-25T01:54:23.539Z,1.38
2022-07-25T01:57:10.177Z,1.67
2022-07-25T01:59:56.621Z,1.40
2022-07-25T02:02:43.436Z,1.75
2022-07-25T02:05:28.383Z,1.50
2022-07-25T02:08:13.488Z,1.90
2022-07-25T02:10:59.132Z,1.73
2022-07-25T02:13:44.687Z,1.48
2022-07-25T02:16:30.057Z,1.20
2022-07-25T02:19:15.293Z,1.57
2022-07-25T02:22:00.523Z,1.70
2022-07-25T02:24:45.905Z,1.30
2022-07-25T02:27:30.892Z,1.48
2022-07-25T02:30:15.853Z,1.50
2022-07-25T02:33:00.699Z,2.20
2022-07-25T02:35:46.087Z,2.17
2022-07-25T02:38:31.130Z,1.58
2022-07-25T02:41:16.317Z,1.65
2022-07-25T02:44:01.758Z,1.73
2022-07-25T02:46:46.877Z,1.53
2022-07-25T02:49:32.229Z,1.42
2022-07-25T02:52:17.170Z,1.35
2022-07-25T02:55:07.543Z,1.27
2022-07-25T02:57:54.892Z,1.48
2022-07-25T03:00:40.281Z,1.80
2022-07-25T03:03:29.645Z,1.98
2022-07-25T03:06:15.570Z,1.42
2022-07-25T03:09:00.839Z,1.27
2022-07-25T03:11:46.145Z,1.35
2022-07-25T03:14:31.099Z,1.47
2022-07-25T03:17:16.087Z,1.30
2022-07-25T03:20:01.539Z,1.55
2022-07-25T03:22:46.857Z,1.60
2022-07-25T03:25:34.539Z,1.60
2022-07-25T03:28:19.400Z,1.57
2022-07-25T03:31:04.462Z,1.90
2022-07-25T03:33:49.616Z,1.75
2022-07-25T03:36:35.364Z,1.48
2022-07-25T03:39:20.673Z,1.70
2022-07-25T03:42:05.879Z,1.70
2022-07-25T03:44:51.915Z,1.90
2022-07-25T03:47:37.410Z,1.30
2022-07-25T03:50:22.924Z,1.20
2022-07-25T03:53:08.145Z,1.88
2022-07-25T03:55:55.332Z,1.43
2022-07-25T03:58:40.803Z,1.73
2022-07-25T04:01:26.585Z,1.45
2022-07-25T04:04:12.796Z,1.48
2022-07-25T04:06:57.887Z,1.45
2022-07-25T04:09:43.016Z,1.67
2022-07-25T04:12:28.302Z,1.42
2022-07-25T04:15:13.734Z,1.48
2022-07-25T04:17:59.464Z,1.45
2022-07-25T04:20:45.919Z,1.65
2022-07-25T04:23:31.468Z,1.77
2022-07-25T04:26:16.958Z,1.60
2022-07-25T04:29:03.673Z,1.70
2022-07-25T04:31:48.872Z,1.80
2022-07-25T04:34:34.079Z,1.85
2022-07-25T04:37:19.568Z,1.20
2022-07-25T04:40:05.824Z,1.30
2022-07-25T04:42:50.769Z,1.60
2022-07-25T04:45:36.583Z,1.35
2022-07-25T04:48:21.552Z,1.38
2022-07-25T04:51:07.641Z,1.77
2022-07-25T04:53:52.899Z,1.55
2022-07-25T04:56:37.866Z,1.92
2022-07-25T04:59:23.204Z,1.80
2022-07-25T05:02:08.675Z,1.63
2022-07-25T05:04:53.978Z,1.43
2022-07-25T05:07:38.848Z,1.80
2022-07-25T05:10:28.294Z,1.35
2022-07-25T05:13:13.269Z,1.27
2022-07-25T05:15:58.850Z,1.65
2022-07-25T05:18:44.153Z,1.47
2022-07-25T05:21:30.005Z,1.92
2022-07-25T05:24:15.275Z,2.05
2022-07-25T05:27:00.387Z,1.40
2022-07-25T05:29:46.261Z,1.48
2022-07-25T05:32:31.839Z,1.90
2022-07-25T05:35:17.299Z,1.75
2022-07-25T05:38:02.317Z,1.80
2022-07-25T05:40:47.380Z,1.42
2022-07-25T05:43:32.453Z,1.55
2022-07-25T05:46:17.740Z,1.80
2022-07-25T05:49:03.170Z,1.65
2022-07-25T05:51:48.887Z,1.90
2022-07-25T05:54:34.719Z,1.70
2022-07-25T05:57:20.039Z,1.48
2022-07-25T06:00:06.536Z,1.80
2022-07-25T06:02:51.836Z,1.77
2022-07-25T06:05:37.187Z,2.90
2022-07-25T06:08:22.617Z,1.90
2022-07-25T06:11:08.571Z,1.55
2022-07-25T06:13:54.874Z,1.60
2022-07-25T06:16:40.931Z,1.73
2022-07-25T06:19:26.530Z,1.40
2022-07-25T06:22:11.652Z,1.88
2022-07-25T06:24:56.805Z,1.70
2022-07-25T06:27:42.474Z,1.87
2022-07-25T06:30:27.552Z,2.08
2022-07-25T06:33:13.205Z,1.80
2022-07-25T06:35:58.506Z,1.38
2022-07-25T06:38:43.897Z,1.75
2022-07-25T06:41:29.263Z,1.90
2022-07-25T06:44:14.506Z,1.67
2022-07-25T06:47:03.850Z,1.70
2022-07-25T06:49:48.918Z,1.55
2022-07-25T06:52:33.984Z,1.80
2022-07-25T06:55:19.223Z,2.20
2022-07-25T06:58:04.663Z,2.15
2022-07-25T07:00:50.360Z,1.60
2022-07-25T07:03:38.537Z,1.38
2022-07-25T07:06:23.828Z,1.85
2022-07-25T07:09:11.097Z,1.73
2022-07-25T07:11:56.158Z,1.42
2022-07-25T07:14:43.609Z,2.25
2022-07-25T07:17:28.764Z,1.63
2022-07-25T07:20:14.238Z,1.98
2022-07-25T07:23:00.132Z,1.50
2022-07-25T07:25:47.008Z,1.98
2022-07-25T07:28:32.525Z,1.75
2022-07-25T07:31:18.308Z,1.80
2022-07-25T07:34:03.781Z,2.50
2022-07-25T07:36:49.170Z,2.17
2022-07-25T07:39:34.269Z,2.08
2022-07-25T07:42:19.809Z,1.75
2022-07-25T07:45:11.224Z,1.92
2022-07-25T07:47:56.500Z,1.90
2022-07-25T07:50:41.741Z,2.83
2022-07-25T07:53:47.472Z,2.17
2022-07-25T07:56:32.602Z,2.00
2022-07-25T07:59:18.078Z,2.25
2022-07-25T08:02:03.255Z,2.28
2022-07-25T08:04:48.535Z,2.90
2022-07-25T08:07:33.576Z,2.63
2022-07-25T08:10:29.821Z,3.08
2022-07-25T08:13:21.121Z,2.65
2022-07-25T08:16:06.843Z,2.78
2022-07-25T08:18:52.104Z,2.17
2022-07-25T08:21:37.415Z,2.45
2022-07-25T08:24:22.881Z,2.80
2022-07-25T08:27:08.523Z,3.42
2022-07-25T08:29:53.938Z,2.83
2022-07-25T08:32:57.683Z,3.17
2022-07-25T08:35:52.147Z,3.17
2022-07-25T08:38:37.723Z,2.67
2022-07-25T08:41:24.754Z,2.92
2022-07-25T08:44:13.027Z,3.30
2022-07-25T08:46:59.644Z,2.73
2022-07-25T08:49:45.003Z,2.47
2022-07-25T08:52:31.661Z,2.30
2022-07-25T08:55:20.576Z,2.75
2022-07-25T08:58:05.612Z,2.60
2022-07-25T09:00:50.748Z,2.63
2022-07-25T09:03:36.380Z,2.33
2022-07-25T09:06:22.545Z,2.47
2022-07-25T09:09:08.604Z,2.10
2022-07-25T09:11:54.034Z,2.63
2022-07-25T09:14:44.106Z,2.00
2022-07-25T09:17:29.083Z,2.45
2022-07-25T09:20:18.391Z,2.92
2022-07-25T09:23:04.153Z,2.75
2022-07-25T09:25:49.108Z,2.85
2022-07-25T09:28:42.374Z,2.77
2022-07-25T09:31:32.645Z,2.70
2022-07-25T09:34:30.753Z,2.58
2022-07-25T09:37:19.425Z,2.50
2022-07-25T09:40:15.424Z,2.78
2022-07-25T09:43:00.950Z,2.80
2022-07-25T09:45:51.714Z,2.92
2022-07-25T09:48:39.488Z,2.70
2022-07-25T09:51:28.894Z,3.35
2022-07-25T09:54:14.387Z,3.00
2022-07-25T09:56:59.352Z,2.70
2022-07-25T09:59:44.833Z,2.70
2022-07-25T10:02:41.387Z,2.88
2022-07-25T10:05:48.337Z,3.05
2022-07-25T10:08:39.683Z,2.72
2022-07-25T10:11:27.015Z,2.70
2022-07-25T10:14:12.880Z,2.72
2022-07-25T10:16:58.106Z,3.15
2022-07-25T10:19:54.268Z,3.20
2022-07-25T10:22:56.370Z,2.80
2022-07-25T10:25:48.839Z,2.67
2022-07-25T10:28:55.839Z,2.95
2022-07-25T10:31:50.638Z,3.22
2022-07-25T10:34:38.092Z,2.67
2022-07-25T10:37:29.258Z,2.78
2022-07-25T10:40:26.058Z,3.00
2022-07-25T10:43:18.924Z,2.95
2022-07-25T10:46:13.012Z,3.47
2022-07-25T10:49:00.533Z,3.28
2022-07-25T10:51:56.408Z,2.38
2022-07-25T10:54:41.416Z,3.63
2022-07-25T10:57:32.061Z,3.05
2022-07-25T11:00:17.807Z,3.25
2022-07-25T11:03:03.829Z,2.90
2022-07-25T11:05:49.067Z,2.60
2022-07-25T11:08:35.813Z,2.70
2022-07-25T11:11:21.107Z,2.63
2022-07-25T11:14:13.989Z,3.28
2022-07-25T11:17:16.927Z,2.80
2022-07-25T11:20:06.132Z,3.10
2022-07-25T11:22:53.694Z,3.33
2022-07-25T11:25:38.908Z,2.83
2022-07-25T11:28:24.116Z,2.90
2022-07-25T11:31:10.766Z,3.30
2022-07-25T11:33:56.198Z,3.38
2022-07-25T11:36:41.544Z,3.40
2022-07-25T11:39:28.712Z,3.03
2022-07-25T11:42:19.628Z,2.97
2022-07-25T11:45:15.803Z,3.25
2022-07-25T11:48:10.091Z,3.53
2022-07-25T11:50:56.054Z,3.43
2022-07-25T11:53:49.677Z,3.55
2022-07-25T11:56:43.435Z,3.53
2022-07-25T11:59:29.226Z,3.30
2022-07-25T12:02:24.848Z,2.90
2022-07-25T12:05:13.344Z,3.23
2022-07-25T12:08:00.799Z,3.38
2022-07-25T12:10:48.288Z,2.95
2022-07-25T12:13:33.762Z,3.45
2022-07-25T12:16:18.904Z,3.75
2022-07-25T12:19:08.732Z,3.30
2022-07-25T12:21:54.287Z,3.38
2022-07-25T12:24:39.338Z,3.40
2022-07-25T12:27:24.454Z,3.30
2022-07-25T12:30:10.493Z,3.80
2022-07-25T12:32:56.579Z,2.87
2022-07-25T12:35:42.705Z,3.90
2022-07-25T12:38:28.616Z,3.28
2022-07-25T12:41:17.797Z,3.70
2022-07-25T12:44:04.290Z,3.95
2022-07-25T12:46:49.799Z,4.00
2022-07-25T12:49:35.416Z,3.40
2022-07-25T12:52:20.833Z,3.30
2022-07-25T12:55:12.652Z,4.00
2022-07-25T12:57:58.048Z,3.58
2022-07-25T13:00:43.939Z,3.87
2022-07-25T13:03:29.083Z,3.80
2022-07-25T13:06:14.736Z,3.40
2022-07-25T13:09:00.311Z,3.45
2022-07-25T13:11:45.878Z,3.47
2022-07-25T13:14:31.153Z,4.00
2022-07-25T13:17:16.573Z,4.30
2022-07-25T13:20:01.925Z,3.53
2022-07-25T13:22:47.095Z,3.67
2022-07-25T13:25:33.748Z,3.90
2022-07-25T13:28:18.784Z,3.93
2022-07-25T13:31:06.919Z,3.65
2022-07-25T13:33:52.886Z,3.35
2022-07-25T13:36:39.445Z,3.95
2022-07-25T13:39:24.463Z,3.88
2022-07-25T13:42:11.123Z,3.90
2022-07-25T13:44:56.207Z,3.40
2022-07-25T13:47:41.247Z,4.70
2022-07-25T13:50:26.425Z,3.65
2022-07-25T13:53:11.741Z,3.33
2022-07-25T13:55:58.512Z,4.10
2022-07-25T13:58:43.943Z,4.15
2022-07-25T14:01:32.961Z,3.40
2022-07-25T14:04:18.405Z,3.45
2022-07-25T14:07:04.170Z,3.55
2022-07-25T14:09:49.461Z,3.70
2022-07-25T14:12:35.684Z,3.67
2022-07-25T14:15:20.840Z,3.30
2022-07-25T14:18:06.115Z,3.55
2022-07-25T14:20:51.504Z,3.47
2022-07-25T14:23:36.821Z,3.80
2022-07-25T14:26:21.841Z,3.33
2022-07-25T14:29:11.113Z,3.85
2022-07-25T14:31:56.761Z,3.65
2022-07-25T14:34:41.884Z,4.40
2022-07-25T14:37:27.148Z,4.13
2022-07-25T14:40:13.545Z,3.83
2022-07-25T14:42:58.812Z,3.75
2022-07-25T14:45:44.099Z,3.97
2022-07-25T14:48:29.452Z,4.03
2022-07-25T14:51:14.808Z,4.37
2022-07-25T14:53:59.960Z,3.90
2022-07-25T14:56:45.189Z,3.47
2022-07-25T14:59:30.608Z,4.20
2022-07-25T15:02:15.738Z,3.67
2022-07-25T15:05:00.697Z,3.90
2022-07-25T15:07:45.771Z,3.58
2022-07-25T15:10:30.992Z,3.25
2022-07-25T15:13:32.251Z,3.60
2022-07-25T15:16:17.503Z,3.55
2022-07-25T15:19:18.210Z,3.97
2022-07-25T15:22:03.444Z,3.72
2022-07-25T15:25:22.463Z,3.58
2022-07-25T15:27:53.596Z,3.67
2022-07-25T15:30:38.513Z,3.63
2022-07-25T15:33:23.811Z,3.97
2022-07-25T15:36:09.705Z,3.38
2022-07-25T15:38:55.081Z,3.58
2022-07-25T15:41:40.208Z,4.03
2022-07-25T15:44:25.551Z,3.25
2022-07-25T15:47:10.706Z,3.57
2022-07-25T15:49:55.977Z,3.95
2022-07-25T15:52:41.235Z,3.60
2022-07-25T15:55:26.155Z,3.92
2022-07-25T15:58:11.566Z,3.40
2022-07-25T16:00:56.967Z,3.93
2022-07-25T16:03:42.602Z,3.22
2022-07-25T16:06:28.026Z,3.17
2022-07-25T16:09:14.610Z,3.80
2022-07-25T16:12:00.315Z,3.70
2022-07-25T16:14:45.182Z,3.40
2022-07-25T16:17:31.956Z,3.88
2022-07-25T16:20:17.521Z,3.60
2022-07-25T16:23:02.967Z,3.90
2022-07-25T16:25:48.374Z,3.60
2022-07-25T16:28:33.378Z,3.90
2022-07-25T16:31:18.285Z,3.67
2022-07-25T16:34:03.592Z,3.25
2022-07-25T16:36:48.919Z,3.38
2022-07-25T16:39:33.882Z,3.10
2022-07-25T16:42:19.327Z,3.93
2022-07-25T16:45:05.593Z,3.17
2022-07-25T16:47:51.285Z,2.88
2022-07-25T16:50:36.388Z,3.58
2022-07-25T16:53:21.744Z,3.30
2022-07-25T16:56:06.716Z,3.77
2022-07-25T16:58:53.064Z,3.28
2022-07-25T17:01:38.432Z,2.90
2022-07-25T17:04:23.605Z,3.20
2022-07-25T17:07:09.725Z,3.47
2022-07-25T17:09:54.880Z,2.83
2022-07-25T17:12:40.088Z,3.05
2022-07-25T17:15:25.252Z,3.35
2022-07-25T17:18:10.189Z,3.53
2022-07-25T17:20:55.688Z,3.50
2022-07-25T17:23:41.095Z,3.50
2022-07-25T17:26:26.336Z,3.13
2022-07-25T17:29:11.751Z,3.05
2022-07-25T17:31:57.002Z,3.63
2022-07-25T17:34:42.152Z,2.95
2022-07-25T17:37:28.990Z,3.90
2022-07-25T17:40:14.366Z,3.63
2022-07-25T17:42:59.597Z,3.70
2022-07-25T17:45:45.083Z,3.55
2022-07-25T17:48:30.364Z,3.75
2022-07-25T17:51:15.661Z,3.73
2022-07-25T17:54:01.059Z,4.35
2022-07-25T17:56:46.164Z,3.63
2022-07-25T17:59:31.713Z,3.22
2022-07-25T18:02:17.403Z,2.83
2022-07-25T18:05:03.667Z,2.70
2022-07-25T18:07:49.605Z,3.53
2022-07-25T18:10:34.933Z,3.78
2022-07-25T18:13:21.945Z,3.15
2022-07-25T18:16:09.060Z,3.35
2022-07-25T18:18:54.586Z,3.23
2022-07-25T18:21:40.272Z,3.65
2022-07-25T18:24:29.206Z,2.65
2022-07-25T18:27:15.001Z,3.58
2022-07-25T18:30:00.710Z,3.08
2022-07-25T18:32:46.208Z,3.33
2022-07-25T18:35:31.479Z,3.58
2022-07-25T18:38:16.459Z,3.33
2022-07-25T18:41:27.666Z,3.70
2022-07-25T18:44:07.340Z,2.97
2022-07-25T18:46:52.733Z,3.20
2022-07-25T18:49:38.233Z,3.42
2022-07-25T18:52:24.070Z,3.33
2022-07-25T18:55:09.592Z,3.13
2022-07-25T18:57:55.092Z,3.40
2022-07-25T19:00:40.395Z,3.43
2022-07-25T19:03:25.809Z,3.40
2022-07-25T19:06:11.339Z,3.40
2022-07-25T19:08:56.897Z,3.45
2022-07-25T19:11:42.551Z,3.38
2022-07-25T19:14:28.770Z,3.37
2022-07-25T19:17:13.799Z,3.25
2022-07-25T19:20:00.689Z,3.65
2022-07-25T19:22:45.563Z,3.38
2022-07-25T19:25:30.986Z,3.42
2022-07-25T19:28:16.452Z,3.10
2022-07-25T19:31:02.153Z,3.38
2022-07-25T19:33:47.358Z,3.15
2022-07-25T19:36:32.954Z,2.70
2022-07-25T19:39:18.181Z,3.45
2022-07-25T19:42:07.445Z,3.10
2022-07-25T19:44:52.351Z,3.53
2022-07-25T19:47:37.398Z,3.10
2022-07-25T19:50:22.594Z,3.20
2022-07-25T19:53:07.821Z,2.67
2022-07-25T19:55:52.963Z,3.40
2022-07-25T19:58:39.111Z,3.65
2022-07-25T20:01:31.356Z,2.95
2022-07-25T20:04:16.476Z,3.25
2022-07-25T20:07:02.334Z,3.20
2022-07-25T20:09:47.964Z,3.27
2022-07-25T20:12:34.531Z,3.38
2022-07-25T20:15:19.883Z,3.10
2022-07-25T20:18:04.987Z,3.10
2022-07-25T20:20:50.403Z,3.60
2022-07-25T20:23:35.680Z,3.53
2022-07-25T20:26:20.583Z,3.03
2022-07-25T20:29:07.739Z,3.05
2022-07-25T20:31:53.998Z,3.28
2022-07-25T20:34:39.441Z,3.00
2022-07-25T20:37:24.735Z,3.10
2022-07-25T20:40:12.078Z,3.13
2022-07-25T20:42:56.904Z,3.55
2022-07-25T20:45:42.208Z,3.13
2022-07-25T20:48:27.258Z,3.00
2022-07-25T20:51:15.469Z,3.07
2022-07-25T20:54:00.913Z,3.30
2022-07-25T20:56:45.932Z,3.00
2022-07-25T20:59:31.444Z,3.00
2022-07-25T21:02:17.562Z,3.10
2022-07-25T21:05:03.283Z,3.37
2022-07-25T21:07:48.272Z,3.45
2022-07-25T21:10:33.359Z,3.05
2022-07-25T21:13:18.741Z,3.10
2022-07-25T21:16:05.351Z,3.40
2022-07-25T21:18:50.797Z,3.37
2022-07-25T21:21:36.270Z,3.85
2022-07-25T21:24:21.632Z,3.20
2022-07-25T21:27:06.934Z,3.72
2022-07-25T21:29:52.377Z,3.50
2022-07-25T21:32:39.137Z,2.90
2022-07-25T21:35:24.456Z,3.33
2022-07-25T21:38:09.640Z,3.25
2022-07-25T21:40:56.894Z,3.10
2022-07-25T21:43:42.276Z,3.00
2022-07-25T21:46:27.467Z,3.10
2022-07-25T21:49:41.319Z,3.45
2022-07-25T21:52:34.425Z,3.45
2022-07-25T21:55:21.506Z,3.22
2022-07-25T21:58:07.714Z,3.30
2022-07-25T22:00:53.200Z,3.40
2022-07-25T22:03:40.346Z,3.53
2022-07-25T22:06:25.430Z,2.92
2022-07-25T22:09:10.666Z,2.92
2022-07-25T22:11:57.497Z,3.30
2022-07-25T22:14:42.850Z,3.00
2022-07-25T22:17:28.342Z,3.20
2022-07-25T22:20:34.243Z,3.42
2022-07-25T22:23:19.379Z,3.22
2022-07-25T22:26:04.239Z,2.80
2022-07-25T22:28:50.645Z,3.50
2022-07-25T22:31:38.663Z,3.15
2022-07-25T22:34:24.268Z,3.42
2022-07-25T22:37:09.655Z,3.42
2022-07-25T22:39:59.103Z,3.40
2022-07-25T22:42:45.944Z,3.43
2022-07-25T22:45:31.325Z,3.00
2022-07-25T22:48:16.529Z,3.35
2022-07-25T22:51:01.928Z,3.47
2022-07-25T22:53:47.047Z,3.08
2022-07-25T22:56:32.482Z,3.87
2022-07-25T22:59:17.843Z,3.47
2022-07-25T23:02:02.830Z,3.33
2022-07-25T23:04:47.762Z,3.10
2022-07-25T23:07:33.921Z,3.15
2022-07-25T23:10:19.286Z,3.23
2022-07-25T23:13:04.191Z,3.13
2022-07-25T23:15:51.726Z,2.92
2022-07-25T23:18:37.166Z,2.95
2022-07-25T23:21:23.127Z,3.05
2022-07-25T23:24:08.198Z,3.40
2022-07-25T23:26:53.697Z,3.08
2022-07-25T23:29:38.682Z,2.60
2022-07-25T23:32:23.984Z,3.00
2022-07-25T23:35:10.021Z,3.33
2022-07-25T23:37:55.024Z,2.57
2022-07-25T23:40:40.496Z,3.10
2022-07-25T23:43:55.006Z,3.10
2022-07-25T23:46:31.293Z,3.03
2022-07-25T23:49:16.939Z,2.95
2022-07-25T23:52:02.182Z,3.07
2022-07-25T23:54:47.515Z,3.50
2022-07-25T23:57:32.405Z,3.20
